Time;durP1;ratioP1;P1;durP2;ratioP2;P2;SDS_P1;SDS_P2;PMS_P1;PMS_P2;Temp;Humidity;BMP_temperature;BMP_pressure;BME280_temperature;BME280_humidity;BME280_pressure;Samples;Min_cycle;Max_cycle;Signal;HPM_P1;HPM_P2
2021/09/11 00:00:04;;;;;;;2.17;1.92;;;23.40;67.30;;;;;;5053284;28;20179;-79
2021/09/11 00:02:30;;;;;;;2.80;2.00;;;23.40;67.30;;;;;;5052350;28;20262;-79
2021/09/11 00:04:55;;;;;;;2.80;2.30;;;23.40;67.30;;;;;;5053384;28;20262;-79
2021/09/11 00:07:21;;;;;;;3.88;2.03;;;23.40;67.30;;;;;;5052958;28;20178;-82
2021/09/11 00:09:47;;;;;;;2.40;2.20;;;23.40;67.20;;;;;;5052324;28;20226;-82
2021/09/11 00:12:12;;;;;;;2.72;2.00;;;23.40;67.30;;;;;;5053405;28;20171;-88
2021/09/11 00:14:38;;;;;;;4.07;2.00;;;23.30;67.20;;;;;;5052943;28;20214;-81
2021/09/11 00:17:04;;;;;;;3.70;2.55;;;23.30;67.20;;;;;;5052344;28;20171;-77
2021/09/11 00:19:29;;;;;;;2.42;2.20;;;23.30;67.10;;;;;;5052576;28;20190;-77
2021/09/11 00:21:55;;;;;;;2.30;2.10;;;23.30;67.10;;;;;;5052973;28;20174;-80
2021/09/11 00:24:20;;;;;;;3.38;2.20;;;23.30;67.10;;;;;;5052135;28;20186;-83
2021/09/11 00:26:46;;;;;;;2.90;2.10;;;23.30;67.10;;;;;;5053102;28;20251;-83
2021/09/11 00:29:11;;;;;;;2.53;2.25;;;23.30;67.10;;;;;;5052763;28;20589;-84
2021/09/11 00:31:37;;;;;;;3.63;2.22;;;23.30;67.10;;;;;;5053040;28;20221;-92
2021/09/11 00:34:02;;;;;;;4.00;2.22;;;23.30;67.20;;;;;;5053405;28;20203;-85
2021/09/11 00:36:28;;;;;;;2.35;2.20;;;23.30;67.20;;;;;;5051993;28;20221;-82
2021/09/11 00:38:54;;;;;;;2.80;2.42;;;23.30;67.10;;;;;;5052655;28;20660;-80
2021/09/11 00:41:19;;;;;;;2.33;2.13;;;23.30;67.20;;;;;;5052843;28;20175;-78
2021/09/11 00:43:47;;;;;;;2.35;2.15;;;23.30;67.10;;;;;;5052127;28;20171;-77
2021/09/11 00:46:13;;;;;;;2.63;2.20;;;23.30;67.10;;;;;;5052907;28;20171;-85
2021/09/11 00:48:39;;;;;;;2.58;2.22;;;23.30;67.10;;;;;;5051929;28;20175;-77
2021/09/11 00:51:04;;;;;;;4.43;2.33;;;23.30;67.10;;;;;;5052028;28;20182;-82
2021/09/11 00:53:30;;;;;;;2.47;2.28;;;23.30;67.10;;;;;;5052227;28;20290;-81
2021/09/11 00:55:55;;;;;;;2.67;2.47;;;23.30;67.10;;;;;;5018483;28;20217;-86
2021/09/11 00:58:21;;;;;;;2.65;2.45;;;23.30;67.10;;;;;;5034194;28;20723;-80
2021/09/11 01:00:46;;;;;;;2.80;2.60;;;23.30;67.10;;;;;;5052843;28;20180;-78
2021/09/11 01:03:12;;;;;;;2.92;2.63;;;23.20;67.10;;;;;;5052673;28;20182;-79
2021/09/11 01:05:38;;;;;;;3.10;2.35;;;23.30;67.10;;;;;;5051577;28;20571;-79
2021/09/11 01:08:04;;;;;;;2.53;2.30;;;23.20;67.00;;;;;;5053049;28;20190;-89
2021/09/11 01:10:29;;;;;;;2.88;2.50;;;23.20;67.00;;;;;;5052618;28;20223;-85
2021/09/11 01:12:55;;;;;;;2.40;2.20;;;23.20;67.00;;;;;;5053375;28;20579;-83
2021/09/11 01:15:30;;;;;;;2.67;2.33;;;23.20;67.00;;;;;;5034953;28;20190;-82
2021/09/11 01:17:56;;;;;;;2.63;2.40;;;23.20;67.10;;;;;;5035212;28;20697;-78
2021/09/11 01:20:21;;;;;;;2.40;2.20;;;23.20;67.00;;;;;;5051336;28;20187;-78
2021/09/11 01:22:47;;;;;;;2.80;2.60;;;23.20;67.00;;;;;;5052611;28;20206;-79
2021/09/11 01:25:12;;;;;;;3.10;2.90;;;23.20;67.00;;;;;;5054866;28;20171;-84
2021/09/11 01:27:38;;;;;;;2.90;2.70;;;23.20;67.00;;;;;;5060880;28;20182;-88
2021/09/11 01:30:06;;;;;;;2.60;2.40;;;23.20;67.00;;;;;;5067122;28;20186;-88
2021/09/11 01:32:32;;;;;;;3.10;2.80;;;23.20;67.00;;;;;;5056762;28;20183;-85
2021/09/11 01:34:57;;;;;;;3.10;2.50;;;23.20;67.00;;;;;;5052367;28;20179;-80
2021/09/11 01:37:23;;;;;;;3.25;2.58;;;23.20;67.00;;;;;;5053495;28;20233;-80
2021/09/11 01:39:49;;;;;;;4.45;2.67;;;23.20;67.00;;;;;;5051575;28;20179;-80
2021/09/11 01:42:19;;;;;;;2.58;2.40;;;23.20;67.00;;;;;;5052220;28;20633;-82
2021/09/11 01:44:49;;;;;;;3.00;2.70;;;23.20;67.00;;;;;;5051986;28;20540;-79
2021/09/11 01:47:14;;;;;;;2.60;2.40;;;23.20;67.00;;;;;;5051410;28;20258;-79
2021/09/11 01:49:41;;;;;;;2.92;2.72;;;23.20;67.00;;;;;;5051851;28;20224;-83
2021/09/11 01:52:07;;;;;;;4.20;2.92;;;23.20;67.00;;;;;;5052500;28;20180;-82
2021/09/11 01:54:32;;;;;;;3.40;3.10;;;23.20;67.00;;;;;;5051376;28;20214;-87
2021/09/11 01:56:58;;;;;;;2.75;2.53;;;23.20;67.00;;;;;;5052284;28;20237;-84
2021/09/11 01:59:24;;;;;;;2.95;2.65;;;23.10;66.80;;;;;;5051797;28;20175;-84
2021/09/11 02:01:50;;;;;;;4.28;3.00;;;23.10;67.00;;;;;;5054096;28;20178;-80
2021/09/11 02:04:16;;;;;;;2.90;2.70;;;23.10;66.90;;;;;;5055591;28;20183;-88
2021/09/11 02:06:41;;;;;;;3.80;2.85;;;23.10;66.80;;;;;;5055220;28;20186;-81
2021/09/11 02:09:07;;;;;;;2.83;2.63;;;23.10;66.80;;;;;;5054822;28;20656;-82
2021/09/11 02:11:32;;;;;;;2.90;2.70;;;23.10;66.80;;;;;;5055119;28;20183;-84
2021/09/11 02:13:58;;;;;;;3.97;2.80;;;23.10;66.90;;;;;;5055448;28;20211;-85
2021/09/11 02:16:23;;;;;;;3.25;2.95;;;23.10;66.80;;;;;;5054373;28;20174;-80
2021/09/11 02:18:49;;;;;;;3.10;2.78;;;23.10;66.80;;;;;;5055337;28;20175;-77
2021/09/11 02:21:14;;;;;;;3.22;2.92;;;23.10;66.80;;;;;;5055252;28;20589;-82
2021/09/11 02:23:40;;;;;;;3.63;2.72;;;23.10;66.80;;;;;;5054448;28;20210;-81
2021/09/11 02:26:05;;;;;;;3.25;2.95;;;23.10;66.80;;;;;;5055326;28;20177;-86
2021/09/11 02:28:30;;;;;;;3.00;2.80;;;23.10;66.80;;;;;;5055144;28;20183;-89
2021/09/11 02:30:56;;;;;;;3.35;3.08;;;23.10;66.80;;;;;;5055414;28;20580;-86
2021/09/11 02:33:21;;;;;;;3.42;3.15;;;23.10;66.80;;;;;;5054949;28;20272;-86
2021/09/11 02:35:47;;;;;;;3.47;2.80;;;23.10;66.80;;;;;;5055437;28;20203;-84
2021/09/11 02:38:13;;;;;;;2.83;2.63;;;23.10;66.80;;;;;;5054504;28;20175;-84
2021/09/11 02:40:38;;;;;;;3.08;2.47;;;23.10;66.80;;;;;;5054702;28;20539;-80
2021/09/11 02:43:03;;;;;;;3.00;2.80;;;23.10;66.80;;;;;;5054326;28;20171;-78
2021/09/11 02:45:29;;;;;;;2.88;2.67;;;23.10;66.70;;;;;;5054594;28;20289;-78
2021/09/11 02:47:54;;;;;;;2.78;2.58;;;23.00;66.60;;;;;;5054776;28;20266;-78
2021/09/11 02:50:20;;;;;;;2.88;2.67;;;23.10;66.70;;;;;;5054057;28;20171;-79
2021/09/11 02:52:46;;;;;;;3.22;2.92;;;23.00;66.70;;;;;;5054846;28;20175;-80
2021/09/11 02:55:11;;;;;;;3.92;2.65;;;23.00;66.70;;;;;;5054756;28;20175;-80
2021/09/11 02:57:37;;;;;;;2.70;2.50;;;23.00;66.60;;;;;;5053606;28;20178;-79
2021/09/11 03:00:04;;;;;;;3.67;2.65;;;23.00;66.70;;;;;;5054760;28;20665;-82
2021/09/11 03:02:29;;;;;;;2.72;2.53;;;23.00;66.60;;;;;;5054288;28;20262;-76
2021/09/11 03:04:55;;;;;;;2.65;2.45;;;23.00;66.60;;;;;;5053919;28;20732;-78
2021/09/11 03:07:20;;;;;;;2.90;2.70;;;23.00;66.60;;;;;;5054259;28;20183;-81
2021/09/11 03:09:46;;;;;;;3.75;2.75;;;23.00;66.60;;;;;;5054460;28;20223;-88
2021/09/11 03:12:11;;;;;;;6.78;2.75;;;23.00;66.60;;;;;;5053378;28;20175;-84
2021/09/11 03:14:37;;;;;;;2.83;2.63;;;23.00;66.60;;;;;;5053899;28;20579;-83
2021/09/11 03:17:03;;;;;;;3.33;2.95;;;23.00;66.60;;;;;;5054380;28;20171;-80
2021/09/11 03:19:28;;;;;;;3.00;2.65;;;23.00;66.60;;;;;;5053446;28;20183;-77
2021/09/11 03:21:54;;;;;;;3.00;2.70;;;23.00;66.60;;;;;;5054286;28;20175;-82
2021/09/11 03:24:19;;;;;;;3.10;2.83;;;23.00;66.50;;;;;;5054126;28;20182;-84
2021/09/11 03:26:45;;;;;;;2.55;2.35;;;23.00;66.50;;;;;;5053324;28;20163;-86
2021/09/11 03:29:10;;;;;;;3.05;2.80;;;23.00;66.50;;;;;;5054287;28;20256;-88
2021/09/11 03:31:36;;;;;;;4.63;2.80;;;23.00;66.50;;;;;;5054330;28;20591;-86
2021/09/11 03:34:01;;;;;;;2.83;2.63;;;23.00;66.50;;;;;;5053416;28;20276;-88
2021/09/11 03:36:27;;;;;;;3.15;2.70;;;23.00;66.50;;;;;;5054164;28;20245;-81
2021/09/11 03:38:52;;;;;;;2.83;2.50;;;23.00;66.50;;;;;;5054046;28;20595;-78
2021/09/11 03:41:18;;;;;;;3.03;2.72;;;23.00;66.50;;;;;;5053112;28;20634;-79
2021/09/11 03:43:43;;;;;;;2.78;2.50;;;23.00;66.50;;;;;;5053441;28;20186;-76
2021/09/11 03:46:09;;;;;;;3.33;2.78;;;23.00;66.50;;;;;;5053356;28;20214;-79
2021/09/11 03:48:34;;;;;;;3.35;2.97;;;22.90;66.40;;;;;;5053072;28;20206;-77
2021/09/11 03:51:01;;;;;;;2.83;2.60;;;22.90;66.40;;;;;;5054142;28;20618;-81
2021/09/11 03:53:27;;;;;;;3.28;2.97;;;22.90;66.40;;;;;;5052697;28;20213;-82
2021/09/11 03:55:52;;;;;;;3.17;2.88;;;22.90;66.40;;;;;;5053835;28;20179;-81
2021/09/11 03:58:18;;;;;;;3.08;2.78;;;22.90;66.40;;;;;;5053615;28;20179;-82
2021/09/11 04:00:43;;;;;;;2.60;2.40;;;22.90;66.30;;;;;;5053122;28;20171;-78
2021/09/11 04:03:09;;;;;;;3.72;2.80;;;22.90;66.40;;;;;;5053587;28;20233;-81
2021/09/11 04:05:34;;;;;;;3.42;3.10;;;22.90;66.30;;;;;;5053203;28;20209;-81
2021/09/11 04:08:00;;;;;;;3.10;2.70;;;22.90;66.30;;;;;;5052731;28;20202;-83
2021/09/11 04:10:25;;;;;;;2.90;2.60;;;22.90;66.30;;;;;;5052947;28;20258;-89
2021/09/11 04:12:51;;;;;;;3.40;3.10;;;22.90;66.30;;;;;;5053407;28;20262;-81
2021/09/11 04:15:16;;;;;;;3.20;3.00;;;22.90;66.30;;;;;;5052424;28;20691;-81
2021/09/11 04:17:42;;;;;;;3.08;2.83;;;22.90;66.20;;;;;;5052662;28;20175;-78
2021/09/11 04:20:08;;;;;;;3.28;2.97;;;22.90;66.20;;;;;;5053276;28;20218;-78
2021/09/11 04:22:33;;;;;;;3.33;3.03;;;22.90;66.20;;;;;;5051923;28;20175;-84
2021/09/11 04:24:59;;;;;;;3.85;3.13;;;22.90;66.20;;;;;;5052801;28;20529;-86
2021/09/11 04:27:25;;;;;;;3.92;3.60;;;22.90;66.20;;;;;;5052837;28;20183;-86
2021/09/11 04:29:50;;;;;;;3.10;2.90;;;22.90;66.20;;;;;;5052678;28;20198;-91
2021/09/11 04:32:16;;;;;;;3.95;3.42;;;22.90;66.20;;;;;;5054442;28;20202;-89
2021/09/11 04:34:41;;;;;;;3.03;2.70;;;22.90;66.20;;;;;;5052707;28;20268;-85
2021/09/11 04:37:07;;;;;;;2.90;2.70;;;22.90;66.20;;;;;;5052360;28;20167;-80
2021/09/11 04:39:32;;;;;;;3.22;2.92;;;22.90;66.20;;;;;;5052617;28;20175;-80
2021/09/11 04:41:58;;;;;;;4.07;3.20;;;22.80;66.10;;;;;;5053059;28;20501;-80
2021/09/11 04:44:24;;;;;;;3.20;3.00;;;22.90;66.20;;;;;;5051734;28;20171;-77
2021/09/11 04:46:49;;;;;;;3.17;2.97;;;22.80;66.10;;;;;;5052988;28;20248;-78
2021/09/11 04:49:15;;;;;;;4.93;3.05;;;22.80;66.00;;;;;;5052977;28;20179;-79
2021/09/11 04:51:40;;;;;;;3.45;3.15;;;22.90;66.20;;;;;;5051654;28;20179;-79
2021/09/11 04:54:06;;;;;;;3.28;2.90;;;22.80;66.90;;;;;;5052726;28;20260;-87
2021/09/11 04:56:31;;;;;;;3.63;2.90;;;22.80;66.00;;;;;;5051691;28;20225;-80
2021/09/11 04:58:57;;;;;;;3.50;3.15;;;22.80;66.00;;;;;;5052655;28;20232;-83
2021/09/11 05:01:22;;;;;;;3.45;3.15;;;22.80;66.00;;;;;;5052269;28;20206;-81
2021/09/11 05:03:48;;;;;;;3.47;3.17;;;22.80;66.00;;;;;;5052183;28;20927;-79
2021/09/11 05:06:13;;;;;;;2.88;2.67;;;22.80;66.00;;;;;;5052743;28;20183;-86
2021/09/11 05:08:39;;;;;;;3.58;3.28;;;22.80;65.90;;;;;;5052335;28;20627;-83
2021/09/11 05:11:04;;;;;;;4.05;3.65;;;22.80;65.90;;;;;;5052249;28;20305;-90
2021/09/11 05:13:30;;;;;;;3.70;3.45;;;22.80;66.00;;;;;;5052399;28;20554;-85
2021/09/11 05:15:55;;;;;;;3.55;3.25;;;22.80;66.00;;;;;;5052543;28;20167;-83
2021/09/11 05:18:21;;;;;;;3.50;3.20;;;22.80;66.00;;;;;;5051698;28;20267;-79
2021/09/11 05:20:46;;;;;;;3.47;3.17;;;22.80;66.00;;;;;;5052610;28;20233;-79
2021/09/11 05:23:12;;;;;;;3.30;3.00;;;22.80;65.90;;;;;;5052467;28;20270;-78
2021/09/11 05:25:37;;;;;;;3.53;3.20;;;22.80;65.90;;;;;;5051444;28;20557;-82
2021/09/11 05:28:03;;;;;;;3.25;3.05;;;22.80;65.90;;;;;;5052655;28;20664;-84
2021/09/11 05:30:28;;;;;;;4.45;3.25;;;22.80;65.90;;;;;;5052482;28;20186;-91
2021/09/11 05:32:54;;;;;;;4.07;3.63;;;22.80;65.90;;;;;;5053042;28;20190;-84
2021/09/11 05:35:19;;;;;;;3.75;3.38;;;22.80;65.80;;;;;;5054426;28;20634;-81
2021/09/11 05:37:45;;;;;;;3.47;2.83;;;22.80;65.80;;;;;;5056251;28;20171;-78
2021/09/11 05:40:10;;;;;;;3.42;2.95;;;22.80;65.80;;;;;;5055479;28;20182;-81
2021/09/11 05:42:36;;;;;;;3.50;3.20;;;22.80;65.80;;;;;;5055858;28;20205;-76
2021/09/11 05:45:06;;;;;;;3.80;3.40;;;22.80;65.80;;;;;;5055950;28;20255;-75
2021/09/11 05:47:33;;;;;;;2.95;2.58;;;22.80;65.80;;;;;;5054966;28;20186;-77
2021/09/11 05:49:59;;;;;;;3.30;3.00;;;22.80;65.80;;;;;;5056149;28;20179;-80
2021/09/11 05:52:24;;;;;;;4.55;3.67;;;22.80;65.80;;;;;;5055715;28;20167;-78
2021/09/11 05:54:50;;;;;;;3.20;3.00;;;22.80;65.70;;;;;;5055248;28;20279;-81
2021/09/11 05:57:15;;;;;;;4.20;3.22;;;22.80;65.70;;;;;;5055925;28;20194;-80
2021/09/11 05:59:41;;;;;;;5.10;3.25;;;22.80;65.80;;;;;;5055538;28;20186;-80
2021/09/11 06:02:07;;;;;;;3.92;3.30;;;22.80;65.80;;;;;;5055373;28;20179;-80
2021/09/11 06:04:32;;;;;;;3.08;2.80;;;22.80;65.70;;;;;;5055631;28;20171;-79
2021/09/11 06:06:58;;;;;;;4.22;2.97;;;22.80;65.70;;;;;;5055497;28;20225;-82
2021/09/11 06:09:23;;;;;;;3.50;2.90;;;22.70;65.60;;;;;;5055689;28;20257;-84
2021/09/11 06:11:49;;;;;;;3.13;2.75;;;22.80;65.70;;;;;;5055918;28;20233;-90
2021/09/11 06:14:14;;;;;;;3.33;3.03;;;22.80;65.70;;;;;;5055032;28;20210;-81
2021/09/11 06:16:40;;;;;;;3.60;3.30;;;22.80;65.60;;;;;;5055576;28;20235;-78
2021/09/11 06:19:05;;;;;;;3.50;3.20;;;22.80;65.60;;;;;;5055485;28;20171;-77
2021/09/11 06:21:31;;;;;;;3.33;2.95;;;22.80;65.60;;;;;;5054399;28;20192;-80
2021/09/11 06:23:57;;;;;;;3.50;3.20;;;22.80;65.60;;;;;;5054301;28;20198;-79
2021/09/11 06:26:22;;;;;;;3.70;3.20;;;22.80;65.60;;;;;;5055267;28;20175;-85
2021/09/11 06:28:48;;;;;;;3.53;3.20;;;22.70;65.50;;;;;;5054757;28;20262;-87
2021/09/11 06:31:13;;;;;;;4.60;3.30;;;22.80;65.60;;;;;;5055551;28;20171;-82
2021/09/11 06:33:39;;;;;;;3.35;2.67;;;22.70;65.60;;;;;;5055076;28;20748;-82
2021/09/11 06:36:10;;;;;;;3.67;3.33;;;22.70;65.60;;;;;;5054537;28;20182;-85
2021/09/11 06:38:35;;;;;;;3.42;3.13;;;22.70;65.60;;;;;;5054823;28;20202;-79
2021/09/11 06:41:01;;;;;;;3.55;3.25;;;22.70;65.60;;;;;;5054888;28;20183;-76
2021/09/11 06:43:26;;;;;;;3.45;2.90;;;22.70;65.60;;;;;;5053879;28;20175;-76
2021/09/11 06:45:52;;;;;;;3.28;3.00;;;22.70;65.70;;;;;;5054534;28;20176;-76
2021/09/11 06:48:18;;;;;;;3.10;2.90;;;22.80;65.60;;;;;;5054759;28;20171;-78
2021/09/11 06:50:43;;;;;;;3.45;3.10;;;22.70;65.60;;;;;;5054047;28;20171;-79
2021/09/11 06:53:09;;;;;;;3.40;3.13;;;22.70;65.60;;;;;;5055012;28;20228;-77
2021/09/11 06:55:34;;;;;;;3.90;3.40;;;22.70;65.60;;;;;;5054529;28;20171;-79
2021/09/11 06:58:00;;;;;;;3.13;2.92;;;22.70;65.60;;;;;;5053963;28;20293;-78
2021/09/11 07:00:25;;;;;;;3.58;3.10;;;22.70;65.50;;;;;;5054496;28;20359;-77
2021/09/11 07:02:51;;;;;;;3.83;2.95;;;22.70;65.60;;;;;;5054693;28;20262;-76
2021/09/11 07:05:18;;;;;;;3.15;2.85;;;22.70;65.60;;;;;;5053801;28;20621;-78
2021/09/11 07:07:43;;;;;;;3.00;2.80;;;22.70;65.50;;;;;;5054334;28;20186;-86
2021/09/11 07:10:09;;;;;;;3.30;2.90;;;22.70;65.50;;;;;;5053909;28;20576;-86
2021/09/11 07:12:35;;;;;;;5.18;3.00;;;22.70;65.50;;;;;;5054237;28;20217;-82
2021/09/11 07:15:02;;;;;;;3.65;3.15;;;22.70;65.50;;;;;;5054387;28;20219;-82
2021/09/11 07:17:28;;;;;;;3.95;2.97;;;22.70;65.50;;;;;;5053400;28;20264;-77
2021/09/11 07:19:53;;;;;;;3.40;3.05;;;22.70;65.50;;;;;;5054461;28;20191;-79
2021/09/11 07:22:19;;;;;;;4.05;3.38;;;22.80;65.50;;;;;;5053922;28;20179;-79
2021/09/11 07:24:44;;;;;;;3.33;3.00;;;22.80;65.50;;;;;;5053172;28;20178;-80
2021/09/11 07:27:10;;;;;;;3.35;3.03;;;22.70;65.50;;;;;;5055004;28;20175;-87
2021/09/11 07:29:35;;;;;;;4.22;3.40;;;22.70;65.50;;;;;;5057387;28;20644;-88
2021/09/11 07:32:03;;;;;;;2.90;2.70;;;22.70;65.50;;;;;;5060442;28;20171;-83
2021/09/11 07:34:29;;;;;;;3.63;3.33;;;22.70;65.40;;;;;;5064153;28;20340;-84
2021/09/11 07:36:55;;;;;;;4.03;2.80;;;22.70;65.50;;;;;;5072684;28;20191;-92
2021/09/11 07:39:20;;;;;;;3.35;3.10;;;22.70;65.40;;;;;;5073567;28;20630;-90
2021/09/11 07:41:46;;;;;;;2.90;2.63;;;22.80;65.50;;;;;;5058133;28;20179;-87
2021/09/11 07:44:11;;;;;;;3.72;3.42;;;22.70;65.50;;;;;;5054696;28;20564;-85
2021/09/11 07:46:37;;;;;;;3.97;3.25;;;22.70;65.50;;;;;;5053267;28;20164;-81
2021/09/11 07:49:03;;;;;;;3.28;3.00;;;22.80;65.60;;;;;;5053863;28;20175;-81
2021/09/11 07:51:28;;;;;;;3.35;3.15;;;22.80;65.60;;;;;;5053876;28;20213;-82
2021/09/11 07:53:54;;;;;;;3.50;3.20;;;22.70;65.50;;;;;;5053616;28;20210;-82
2021/09/11 07:56:20;;;;;;;3.83;2.80;;;22.80;65.40;;;;;;5053602;28;20920;-84
2021/09/11 07:58:45;;;;;;;4.35;3.20;;;22.80;65.50;;;;;;5053659;28;20174;-78
2021/09/11 08:01:11;;;;;;;4.45;3.30;;;22.80;65.50;;;;;;5052898;28;20361;-71
2021/09/11 08:03:36;;;;;;;4.22;3.40;;;22.80;65.60;;;;;;5053115;28;20257;-68
2021/09/11 08:06:07;;;;;;;3.35;3.10;;;22.80;65.50;;;;;;5053551;28;20175;-68
2021/09/11 08:08:36;;;;;;;4.75;3.70;;;22.80;65.40;;;;;;5052537;28;20617;-69
2021/09/11 08:11:02;;;;;;;5.35;3.78;;;22.80;65.50;;;;;;5053222;28;20222;-67
2021/09/11 08:13:28;;;;;;;4.40;3.83;;;22.80;65.50;;;;;;5052311;28;20245;-69
2021/09/11 08:15:53;;;;;;;4.43;3.30;;;22.80;65.60;;;;;;5053248;28;20258;-69
2021/09/11 08:18:19;;;;;;;4.68;3.63;;;22.80;65.50;;;;;;5053145;28;20270;-70
2021/09/11 08:20:44;;;;;;;4.95;3.65;;;22.80;65.50;;;;;;5052144;28;20167;-70
2021/09/11 08:23:10;;;;;;;6.72;4.25;;;22.80;65.50;;;;;;5052911;28;20163;-69
2021/09/11 08:25:35;;;;;;;3.83;3.50;;;22.80;65.40;;;;;;5052819;28;20171;-69
2021/09/11 08:28:01;;;;;;;5.95;4.20;;;22.80;65.30;;;;;;5052360;28;20171;-68
2021/09/11 08:30:26;;;;;;;5.72;4.07;;;22.90;65.40;;;;;;5052858;28;20175;-68
2021/09/11 08:32:52;;;;;;;5.03;3.78;;;22.90;65.30;;;;;;5052870;28;20193;-70
2021/09/11 08:35:17;;;;;;;4.32;3.90;;;22.90;65.30;;;;;;5052259;28;20186;-69
2021/09/11 08:37:43;;;;;;;4.18;3.70;;;22.90;65.30;;;;;;5052465;28;20182;-70
2021/09/11 08:40:09;;;;;;;3.42;3.13;;;22.90;65.30;;;;;;5053103;28;20175;-69
2021/09/11 08:42:35;;;;;;;4.95;3.42;;;22.90;65.30;;;;;;5051866;28;20179;-78
2021/09/11 08:45:00;;;;;;;4.47;3.00;;;22.90;65.30;;;;;;5052893;28;20170;-77
2021/09/11 08:47:26;;;;;;;6.03;4.20;;;22.90;65.30;;;;;;5052517;28;20182;-76
2021/09/11 08:49:51;;;;;;;6.43;3.95;;;22.90;65.30;;;;;;5052015;28;20177;-80
2021/09/11 08:52:17;;;;;;;4.18;3.60;;;22.90;65.20;;;;;;5052569;28;20171;-78
2021/09/11 08:54:42;;;;;;;4.90;3.80;;;23.00;65.20;;;;;;5052334;28;20534;-84
2021/09/11 08:57:20;;;;;;;5.30;4.18;;;23.00;65.10;;;;;;5052303;28;20183;-76
2021/09/11 08:59:46;;;;;;;6.40;4.40;;;23.00;65.10;;;;;;5035494;28;20182;-79
2021/09/11 09:02:11;;;;;;;6.68;4.43;;;23.00;65.20;;;;;;5052819;28;20598;-76
2021/09/11 09:04:48;;;;;;;6.82;4.82;;;23.00;65.20;;;;;;5051602;28;20254;-74
2021/09/11 09:07:39;;;;;;;5.78;4.03;;;23.00;65.30;;;;;;5052576;28;20657;-75
2021/09/11 09:10:05;;;;;;;4.82;4.30;;;23.00;65.30;;;;;;5053444;28;20230;-77
2021/09/11 09:12:34;;;;;;;4.95;4.25;;;23.00;65.30;;;;;;5056397;28;20173;-80
2021/09/11 09:15:01;;;;;;;5.57;4.30;;;23.00;65.20;;;;;;5056580;28;20210;-83
2021/09/11 09:17:54;;;;;;;5.47;4.90;;;23.00;65.10;;;;;;5055360;28;20225;-78
2021/09/11 09:20:27;;;;;;;6.18;4.50;;;23.10;65.00;;;;;;5057599;28;20174;-77
2021/09/11 09:22:59;;;;;;;7.05;4.97;;;23.10;65.00;;;;;;5065438;28;20629;-80
2021/09/11 09:25:28;;;;;;;4.88;4.47;;;23.00;65.00;;;;;;5041634;28;20615;-84
2021/09/11 09:27:58;;;;;;;5.40;4.45;;;23.00;65.00;;;;;;5041207;28;20230;-84
2021/09/11 09:30:43;;;;;;;5.80;4.95;;;23.00;65.10;;;;;;5076349;28;20174;-88
2021/09/11 09:33:16;;;;;;;6.13;4.05;;;23.00;65.20;;;;;;5076104;28;20264;-81
2021/09/11 09:35:41;;;;;;;7.68;4.75;;;23.00;65.10;;;;;;5076122;28;20186;-82
2021/09/11 09:38:08;;;;;;;4.65;4.15;;;23.00;65.10;;;;;;5042953;28;20874;-81
2021/09/11 09:40:45;;;;;;;5.65;4.22;;;23.00;65.00;;;;;;5036104;28;20187;-75
2021/09/11 09:43:12;;;;;;;5.07;4.53;;;23.00;65.10;;;;;;5036084;28;20692;-82
2021/09/11 09:45:37;;;;;;;4.85;4.40;;;23.00;65.00;;;;;;5051807;28;20701;-76
2021/09/11 09:48:09;;;;;;;4.70;4.30;;;23.00;65.00;;;;;;5056196;28;20254;-76
2021/09/11 09:50:39;;;;;;;5.22;4.78;;;23.00;65.10;;;;;;5055596;28;20646;-79
2021/09/11 09:53:06;;;;;;;5.57;5.07;;;23.00;65.10;;;;;;5055276;28;20175;-76
2021/09/11 09:55:31;;;;;;;5.45;4.18;;;23.00;65.10;;;;;;5036865;28;20180;-81
2021/09/11 09:57:57;;;;;;;5.47;4.55;;;23.00;65.10;;;;;;5035930;28;20178;-78
2021/09/11 10:00:23;;;;;;;6.53;4.80;;;23.00;65.10;;;;;;5035194;28;20656;-76
2021/09/11 10:02:49;;;;;;;4.90;4.40;;;23.00;65.10;;;;;;5036049;28;20168;-78
2021/09/11 10:05:15;;;;;;;5.63;4.28;;;23.00;65.20;;;;;;5035684;28;20231;-80
2021/09/11 10:07:59;;;;;;;5.55;4.95;;;23.00;65.20;;;;;;5033403;28;20226;-81
2021/09/11 10:10:48;;;;;;;4.63;4.30;;;23.00;65.10;;;;;;5034109;28;20293;-81
2021/09/11 10:13:16;;;;;;;5.20;4.78;;;23.00;65.10;;;;;;5033913;28;20246;-79
2021/09/11 10:16:04;;;;;;;4.72;4.30;;;23.00;65.20;;;;;;5035336;28;20179;-79
2021/09/11 10:18:30;;;;;;;5.03;4.63;;;23.00;65.20;;;;;;5035349;28;20542;-81
2021/09/11 10:21:15;;;;;;;6.60;5.28;;;23.00;65.20;;;;;;5033899;28;20697;-80
2021/09/11 10:23:41;;;;;;;5.32;4.82;;;23.00;65.20;;;;;;5035346;28;20182;-81
2021/09/11 10:26:26;;;;;;;5.82;5.40;;;23.00;65.20;;;;;;5035560;28;20176;-86
2021/09/11 10:28:52;;;;;;;5.10;4.60;;;23.00;65.40;;;;;;5058799;28;20180;-84
2021/09/11 10:31:18;;;;;;;5.82;5.28;;;23.00;65.30;;;;;;5075409;28;20174;-80
2021/09/11 10:33:46;;;;;;;6.75;6.00;;;23.00;65.20;;;;;;5075108;28;20255;-79
2021/09/11 10:36:23;;;;;;;7.15;5.45;;;23.00;65.20;;;;;;5074457;28;20199;-82
2021/09/11 10:38:51;;;;;;;6.32;5.75;;;23.00;65.10;;;;;;5074918;28;20594;-77
2021/09/11 10:41:17;;;;;;;6.53;5.90;;;23.00;65.10;;;;;;5074264;28;20696;-79
2021/09/11 10:44:11;;;;;;;6.95;6.35;;;23.00;65.10;;;;;;5074862;28;20270;-75
2021/09/11 10:46:53;;;;;;;6.68;6.00;;;23.00;65.20;;;;;;5061557;28;20187;-78
2021/09/11 10:49:35;;;;;;;5.75;5.25;;;23.00;65.10;;;;;;5075049;28;20181;-80
2021/09/11 10:52:10;;;;;;;6.95;5.38;;;23.00;65.10;;;;;;5074977;28;20556;-73
2021/09/11 10:54:42;;;;;;;6.85;6.30;;;23.00;65.30;;;;;;5074400;28;20698;-79
2021/09/11 10:57:09;;;;;;;7.70;6.10;;;23.00;65.20;;;;;;5073936;28;20548;-78
2021/09/11 10:59:35;;;;;;;6.18;5.60;;;22.90;65.20;;;;;;5074488;28;20171;-72
2021/09/11 11:02:06;;;;;;;7.30;6.20;;;23.00;65.20;;;;;;5074914;28;20178;-82
2021/09/11 11:04:46;;;;;;;6.93;6.18;;;22.90;65.20;;;;;;5073769;28;20239;-76
2021/09/11 11:07:12;;;;;;;6.30;5.70;;;23.00;65.40;;;;;;5074798;28;20193;-79
2021/09/11 11:09:42;;;;;;;8.38;7.05;;;23.00;65.40;;;;;;5073269;28;20218;-81
2021/09/11 11:12:09;;;;;;;7.70;6.95;;;23.00;65.40;;;;;;5074311;28;20547;-81
2021/09/11 11:14:35;;;;;;;7.53;6.82;;;23.00;65.40;;;;;;5074276;28;20214;-81
2021/09/11 11:17:02;;;;;;;7.60;6.72;;;23.00;65.20;;;;;;5073971;28;20181;-80
2021/09/11 11:19:29;;;;;;;8.77;7.10;;;23.10;65.20;;;;;;5074064;28;20185;-80
2021/09/11 11:22:08;;;;;;;7.60;6.95;;;23.10;65.20;;;;;;5074194;28;20173;-78
2021/09/11 11:24:35;;;;;;;7.97;7.32;;;23.10;65.10;;;;;;5073144;28;20693;-80
2021/09/11 11:27:02;;;;;;;12.57;7.93;;;23.20;65.20;;;;;;5074246;28;20190;-71
2021/09/11 11:29:28;;;;;;;12.40;7.57;;;23.20;65.10;;;;;;5039127;28;20182;-75
2021/09/11 11:31:54;;;;;;;9.88;7.97;;;23.20;65.00;;;;;;5033299;28;20259;-83
2021/09/11 11:34:19;;;;;;;8.82;8.02;;;23.30;65.10;;;;;;5033936;28;20210;-83
2021/09/11 11:36:48;;;;;;;10.98;7.40;;;23.40;65.00;;;;;;5034475;28;20171;-75
2021/09/11 11:39:20;;;;;;;8.70;7.80;;;23.40;64.80;;;;;;5033065;28;20553;-75
2021/09/11 11:41:53;;;;;;;9.20;8.25;;;23.50;64.40;;;;;;5033981;28;20242;-75
2021/09/11 11:44:19;;;;;;;11.02;7.82;;;23.50;64.40;;;;;;5033972;28;20184;-75
2021/09/11 11:46:45;;;;;;;8.30;7.35;;;23.50;64.40;;;;;;5015382;28;20171;-74
2021/09/11 11:49:10;;;;;;;9.50;8.57;;;23.50;64.50;;;;;;5032514;28;20188;-75
2021/09/11 11:51:36;;;;;;;8.65;7.85;;;23.60;64.40;;;;;;5031527;28;20502;-80
2021/09/11 11:54:01;;;;;;;9.23;8.32;;;23.60;64.30;;;;;;5016172;28;20215;-77
2021/09/11 11:56:27;;;;;;;8.63;7.82;;;23.70;64.10;;;;;;5032241;28;20214;-76
2021/09/11 11:58:59;;;;;;;9.20;8.27;;;23.70;64.00;;;;;;5033009;28;20180;-74
2021/09/11 12:01:28;;;;;;;9.32;8.43;;;23.80;63.90;;;;;;5033127;28;20551;-75
2021/09/11 12:03:54;;;;;;;9.40;7.28;;;23.80;63.90;;;;;;5033545;28;20552;-76
2021/09/11 12:06:19;;;;;;;9.38;8.40;;;23.80;63.90;;;;;;5031333;28;20224;-77
2021/09/11 12:08:46;;;;;;;9.00;8.07;;;23.80;63.90;;;;;;5033475;28;20175;-80
2021/09/11 12:11:16;;;;;;;9.30;8.40;;;23.70;64.00;;;;;;5033454;28;20235;-79
2021/09/11 12:13:46;;;;;;;10.43;8.50;;;23.70;64.20;;;;;;5032388;28;20208;-77
2021/09/11 12:16:12;;;;;;;9.50;8.77;;;23.70;64.20;;;;;;5033397;28;20191;-78
2021/09/11 12:18:37;;;;;;;9.15;8.32;;;23.70;64.30;;;;;;5031718;28;20180;-75
2021/09/11 12:21:08;;;;;;;9.48;8.68;;;23.70;64.40;;;;;;5032810;28;20172;-76
2021/09/11 12:23:34;;;;;;;10.70;8.70;;;23.60;64.40;;;;;;5033084;28;20729;-79
2021/09/11 12:26:23;;;;;;;9.70;8.75;;;23.60;64.50;;;;;;5033289;28;20634;-78
2021/09/11 12:28:53;;;;;;;10.43;9.13;;;23.60;64.60;;;;;;5056064;28;20178;-82
2021/09/11 12:31:18;;;;;;;10.23;9.27;;;23.60;64.70;;;;;;5073128;28;20178;-80
2021/09/11 12:34:01;;;;;;;10.00;9.27;;;23.50;64.70;;;;;;5071913;28;20214;-79
2021/09/11 12:36:26;;;;;;;10.65;9.63;;;23.50;64.90;;;;;;5072765;28;20178;-78
2021/09/11 12:38:52;;;;;;;9.38;8.48;;;23.40;65.00;;;;;;5072852;28;20663;-75
2021/09/11 12:41:18;;;;;;;10.15;9.05;;;23.40;65.10;;;;;;5072176;28;20540;-77
2021/09/11 12:43:43;;;;;;;10.90;9.15;;;23.30;65.30;;;;;;5072011;28;20632;-78